Time;durP1;ratioP1;P1;durP2;ratioP2;P2;SDS_P1;SDS_P2;PMS_P1;PMS_P2;Temp;Humidity;BMP_temperature;BMP_pressure;BME280_temperature;BME280_humidity;BME280_pressure;Samples;Min_cycle;Max_cycle;Signal;HPM_P1;HPM_P2
2022/03/04 00:02:19;;;;;;;15.02;8.73;;;-0.20;99.90;;;;;;4942715;29;20032;-79
2022/03/04 00:04:45;;;;;;;18.90;9.85;;;-0.20;99.90;;;;;;4943617;28;20044;-77
2022/03/04 00:07:11;;;;;;;17.95;9.25;;;0.10;99.90;;;;;;4960933;29;20111;-79
2022/03/04 00:09:36;;;;;;;15.05;8.48;;;0.20;99.90;;;;;;4942141;29;20047;-79
2022/03/04 00:12:03;;;;;;;13.77;8.43;;;0.50;99.90;;;;;;4951016;29;20443;-79
2022/03/04 00:14:30;;;;;;;15.32;7.82;;;0.80;99.90;;;;;;4935554;29;20396;-78
2022/03/04 00:16:55;;;;;;;12.95;8.45;;;2.90;99.90;;;;;;4934351;29;20039;-79
2022/03/04 00:19:21;;;;;;;24.45;11.48;;;1.30;99.90;;;;;;4932874;29;20039;-79
2022/03/04 00:21:49;;;;;;;16.40;8.60;;;2.20;99.90;;;;;;4936772;29;20030;-78
2022/03/04 00:24:19;;;;;;;15.93;8.02;;;1.30;99.90;;;;;;4922828;29;20032;-79
2022/03/04 00:26:46;;;;;;;19.77;8.75;;;1.50;99.90;;;;;;4932959;29;20060;-79
2022/03/04 00:29:12;;;;;;;16.75;8.88;;;2.30;99.90;;;;;;4918418;29;20039;-79
2022/03/04 00:31:38;;;;;;;18.42;8.63;;;1.60;99.90;;;;;;4919296;29;20020;-78
2022/03/04 00:34:07;;;;;;;15.43;8.95;;;1.50;99.90;;;;;;4918168;29;20028;-78
2022/03/04 00:36:37;;;;;;;21.20;8.43;;;1.80;99.90;;;;;;4918145;29;20388;-78
2022/03/04 00:39:07;;;;;;;16.70;9.02;;;1.70;99.90;;;;;;4917610;29;20111;-78
2022/03/04 00:41:33;;;;;;;14.38;8.63;;;1.70;99.90;;;;;;4931003;29;20031;-78
2022/03/04 00:43:58;;;;;;;13.50;7.75;;;1.60;99.90;;;;;;4951381;29;20024;-79
2022/03/04 00:46:24;;;;;;;15.73;8.77;;;1.80;99.90;;;;;;4936671;29;20527;-78
2022/03/04 00:48:50;;;;;;;15.63;9.05;;;1.60;99.90;;;;;;4936348;29;20046;-78
2022/03/04 00:51:16;;;;;;;14.40;8.32;;;1.60;99.90;;;;;;4926513;29;20031;-79
2022/03/04 00:53:42;;;;;;;15.05;8.85;;;1.80;99.90;;;;;;4934987;29;20032;-78
2022/03/04 00:56:09;;;;;;;14.90;8.65;;;3.00;99.90;;;;;;4949153;29;20035;-78
2022/03/04 00:58:36;;;;;;;15.32;9.05;;;1.50;99.90;;;;;;4948689;28;20028;-78
2022/03/04 01:01:03;;;;;;;17.92;9.20;;;1.40;99.90;;;;;;4925000;29;20027;-78
2022/03/04 01:03:28;;;;;;;16.13;8.98;;;1.70;99.90;;;;;;4934993;29;20241;-77
2022/03/04 01:05:54;;;;;;;15.50;9.00;;;1.50;99.90;;;;;;4933235;29;20160;-78
2022/03/04 01:08:20;;;;;;;15.38;8.80;;;1.40;99.90;;;;;;4947910;29;20032;-78
2022/03/04 01:10:46;;;;;;;18.92;9.55;;;1.10;99.90;;;;;;4923704;29;20125;-76
2022/03/04 01:13:15;;;;;;;17.73;8.98;;;1.30;99.90;;;;;;4934684;29;20042;-76
2022/03/04 01:15:41;;;;;;;18.95;9.48;;;1.80;99.90;;;;;;4934508;29;20547;-78
2022/03/04 01:18:07;;;;;;;15.18;9.23;;;1.00;99.90;;;;;;4934209;29;20035;-77
2022/03/04 01:20:33;;;;;;;16.77;9.35;;;2.50;99.90;;;;;;4933856;29;20039;-77
2022/03/04 01:22:59;;;;;;;15.38;9.25;;;1.00;99.90;;;;;;4941567;29;20101;-78
2022/03/04 01:25:25;;;;;;;15.65;9.15;;;0.90;99.90;;;;;;4938346;28;20038;-78
2022/03/04 01:27:51;;;;;;;19.80;9.80;;;0.70;99.90;;;;;;4938903;29;20048;-78
2022/03/04 01:30:18;;;;;;;16.48;9.48;;;0.80;99.90;;;;;;4936944;29;20036;-79
2022/03/04 01:32:44;;;;;;;17.25;9.00;;;0.70;99.90;;;;;;4919455;29;20081;-78
2022/03/04 01:35:10;;;;;;;17.35;10.05;;;0.70;99.90;;;;;;4914088;29;20507;-78
2022/03/04 01:37:35;;;;;;;16.90;9.57;;;0.80;99.90;;;;;;4915119;29;20034;-78
2022/03/04 01:40:03;;;;;;;15.98;8.93;;;0.70;99.90;;;;;;4916034;29;20131;-78
2022/03/04 01:42:29;;;;;;;15.43;8.98;;;0.70;99.90;;;;;;4918937;29;20087;-78
2022/03/04 01:44:55;;;;;;;17.20;9.55;;;0.80;99.90;;;;;;4932307;29;20481;-78
2022/03/04 01:47:20;;;;;;;16.25;10.05;;;1.40;99.90;;;;;;4926486;29;20496;-78
2022/03/04 01:49:46;;;;;;;19.35;10.10;;;0.50;99.90;;;;;;4942046;29;20028;-76
2022/03/04 01:52:12;;;;;;;18.23;10.35;;;0.60;99.90;;;;;;4916060;29;20046;-77
2022/03/04 01:54:37;;;;;;;17.92;10.10;;;0.50;99.90;;;;;;4929021;29;20071;-77
2022/03/04 01:57:03;;;;;;;16.52;9.80;;;0.60;99.90;;;;;;4916290;29;20047;-75
2022/03/04 01:59:29;;;;;;;17.60;10.15;;;0.60;99.90;;;;;;4929055;29;20107;-76
2022/03/04 02:01:55;;;;;;;18.42;10.98;;;0.50;99.90;;;;;;4927893;29;20036;-77
2022/03/04 02:04:22;;;;;;;19.83;10.00;;;0.40;99.90;;;;;;4932349;28;20388;-77
2022/03/04 02:06:47;;;;;;;19.02;10.65;;;0.40;99.90;;;;;;4932564;29;20020;-77
2022/03/04 02:09:13;;;;;;;16.77;10.20;;;0.30;99.90;;;;;;4946440;29;20035;-76
2022/03/04 02:11:41;;;;;;;18.98;10.15;;;0.40;99.90;;;;;;4931612;29;20039;-76
2022/03/04 02:14:07;;;;;;;18.85;11.02;;;0.40;99.90;;;;;;4932177;28;20024;-76
2022/03/04 02:16:51;;;;;;;21.50;11.13;;;0.40;99.90;;;;;;4931934;28;20058;-76
2022/03/04 02:19:18;;;;;;;17.65;10.15;;;0.20;99.90;;;;;;4930315;29;20034;-77
2022/03/04 02:22:02;;;;;;;17.80;10.15;;;1.20;99.90;;;;;;4926786;29;20031;-77
2022/03/04 02:24:30;;;;;;;19.20;10.45;;;0.30;99.90;;;;;;4946654;29;20031;-77
2022/03/04 02:26:58;;;;;;;18.63;10.73;;;0.30;99.90;;;;;;4931588;29;20036;-77
2022/03/04 02:29:24;;;;;;;20.35;9.95;;;0.10;99.90;;;;;;4931337;29;20452;-77
2022/03/04 02:31:50;;;;;;;22.77;11.45;;;0.00;99.90;;;;;;4926449;29;20078;-77
2022/03/04 02:34:16;;;;;;;20.02;11.25;;;0.10;99.90;;;;;;4932503;28;20036;-76
2022/03/04 02:36:43;;;;;;;19.77;10.38;;;0.10;99.90;;;;;;4932032;29;20032;-77
2022/03/04 02:39:09;;;;;;;18.73;10.95;;;-0.20;99.90;;;;;;4930016;29;20039;-78
2022/03/04 02:41:36;;;;;;;24.40;11.38;;;-0.20;99.90;;;;;;4915652;29;20036;-77
2022/03/04 02:44:03;;;;;;;24.08;11.63;;;-0.20;99.90;;;;;;4914598;29;20033;-77
2022/03/04 02:46:28;;;;;;;24.05;11.38;;;-0.40;99.90;;;;;;4915635;28;20590;-77
2022/03/04 02:48:54;;;;;;;22.67;11.80;;;-0.40;99.90;;;;;;4933684;29;20040;-77
2022/03/04 02:51:20;;;;;;;18.13;10.48;;;-0.30;99.90;;;;;;4949537;29;20078;-77
2022/03/04 02:53:46;;;;;;;23.60;11.68;;;-0.40;99.90;;;;;;4931716;29;20341;-76
2022/03/04 02:56:12;;;;;;;24.45;11.95;;;-0.30;99.90;;;;;;4913599;29;20385;-77
2022/03/04 02:58:37;;;;;;;20.02;11.90;;;-0.60;99.90;;;;;;4913246;29;20039;-77
2022/03/04 03:01:03;;;;;;;22.17;11.60;;;-0.50;99.90;;;;;;4937041;28;20040;-77
2022/03/04 03:03:29;;;;;;;22.33;11.45;;;0.40;99.90;;;;;;4927192;29;20043;-77
2022/03/04 03:05:54;;;;;;;21.00;12.15;;;1.40;99.90;;;;;;4912183;28;20032;-77
2022/03/04 03:08:20;;;;;;;20.75;11.05;;;-0.20;99.90;;;;;;4912368;29;20036;-76
2022/03/04 03:10:46;;;;;;;21.08;11.13;;;-0.10;99.90;;;;;;4926415;29;20777;-77
2022/03/04 03:13:11;;;;;;;20.08;11.65;;;-0.10;99.90;;;;;;4912787;29;20126;-77
2022/03/04 03:15:37;;;;;;;21.80;11.20;;;-0.20;99.90;;;;;;4912289;29;20036;-76
2022/03/04 03:18:03;;;;;;;19.13;11.02;;;-0.10;99.90;;;;;;4940717;29;20054;-76
2022/03/04 03:20:29;;;;;;;18.95;11.55;;;-0.40;99.90;;;;;;4930620;29;20393;-77
2022/03/04 03:22:54;;;;;;;21.17;11.82;;;-0.40;99.90;;;;;;4945868;28;20138;-77
2022/03/04 03:25:20;;;;;;;25.27;12.07;;;-0.50;99.90;;;;;;4931111;28;20028;-77
2022/03/04 03:27:46;;;;;;;21.45;12.68;;;-0.60;99.90;;;;;;4920373;29;20088;-77
2022/03/04 03:30:12;;;;;;;20.65;11.43;;;0.00;99.90;;;;;;4930864;28;20044;-76
2022/03/04 03:32:39;;;;;;;20.45;11.85;;;-0.90;99.90;;;;;;4920489;29;20163;-76
2022/03/04 03:35:07;;;;;;;23.00;12.13;;;-1.00;99.90;;;;;;4912090;29;20033;-76
2022/03/04 03:37:33;;;;;;;21.27;12.60;;;-1.20;99.90;;;;;;4910813;29;20039;-76
2022/03/04 03:39:58;;;;;;;22.10;11.80;;;-1.40;99.90;;;;;;4911362;29;20024;-76
2022/03/04 03:42:24;;;;;;;18.67;11.73;;;-1.70;99.90;;;;;;4915581;29;20036;-76
2022/03/04 03:44:50;;;;;;;22.50;12.38;;;-1.80;99.90;;;;;;4911876;29;20044;-76
2022/03/04 03:47:15;;;;;;;20.73;12.65;;;-1.80;99.90;;;;;;4934263;29;20032;-76
2022/03/04 03:49:41;;;;;;;23.63;12.60;;;-2.10;99.90;;;;;;4945038;29;20047;-76
2022/03/04 03:52:07;;;;;;;26.60;14.20;;;-1.90;99.90;;;;;;4920742;29;20480;-76
2022/03/04 03:54:33;;;;;;;24.02;13.93;;;-2.00;99.90;;;;;;4912117;29;20393;-76
2022/03/04 03:56:58;;;;;;;27.00;14.48;;;-1.90;99.90;;;;;;4915004;29;20059;-76
2022/03/04 03:59:24;;;;;;;22.08;12.90;;;-1.90;99.90;;;;;;4914730;29;20055;-76
2022/03/04 04:01:49;;;;;;;24.38;13.27;;;-2.00;99.90;;;;;;4932781;29;20036;-76
2022/03/04 04:04:17;;;;;;;22.42;12.32;;;-2.10;99.90;;;;;;4932877;29;20434;-76
2022/03/04 04:06:44;;;;;;;25.42;13.48;;;-1.90;99.90;;;;;;4933135;29;20350;-76
2022/03/04 04:09:10;;;;;;;22.33;13.40;;;-1.90;99.90;;;;;;4945044;29;20142;-76
2022/03/04 04:11:37;;;;;;;24.58;14.05;;;-1.90;99.90;;;;;;4939146;28;20038;-76
2022/03/04 04:14:04;;;;;;;25.00;12.88;;;-2.00;99.90;;;;;;4933861;29;20036;-76
2022/03/04 04:16:30;;;;;;;23.75;13.55;;;-2.00;99.90;;;;;;4933566;29;20082;-76
2022/03/04 04:18:56;;;;;;;25.73;14.20;;;-2.00;99.90;;;;;;4932461;29;20055;-76
2022/03/04 04:21:23;;;;;;;22.27;12.82;;;-2.00;99.90;;;;;;4928986;29;20539;-75
2022/03/04 04:23:48;;;;;;;22.40;13.30;;;-2.00;99.90;;;;;;4948418;29;20067;-76
2022/03/04 04:26:14;;;;;;;23.10;14.07;;;-2.20;99.90;;;;;;4937189;29;20043;-76
2022/03/04 04:28:39;;;;;;;26.80;13.18;;;-2.00;99.90;;;;;;4933389;28;20039;-76
2022/03/04 04:31:05;;;;;;;22.20;13.45;;;-2.10;99.90;;;;;;4932448;28;20055;-76
2022/03/04 04:33:34;;;;;;;27.27;13.93;;;-2.00;99.90;;;;;;4913198;29;20044;-76
2022/03/04 04:35:59;;;;;;;35.47;16.80;;;-1.90;99.90;;;;;;4928568;29;20124;-76
2022/03/04 04:38:25;;;;;;;25.85;13.38;;;-2.10;99.90;;;;;;4914179;29;20496;-76
2022/03/04 04:40:50;;;;;;;23.48;12.73;;;-3.10;99.90;;;;;;5006149;28;20496;-76
2022/03/04 04:43:16;;;;;;;23.25;14.23;;;-2.10;99.90;;;;;;4933875;28;20028;-76
2022/03/04 04:45:42;;;;;;;22.33;12.52;;;-2.10;99.90;;;;;;4934845;28;20040;-76
2022/03/04 04:48:08;;;;;;;21.40;13.07;;;-2.40;99.90;;;;;;4940960;28;20106;-77
2022/03/04 04:50:33;;;;;;;22.35;12.98;;;-2.40;99.90;;;;;;4938560;29;20481;-77
2022/03/04 04:52:59;;;;;;;26.40;14.60;;;-0.70;99.90;;;;;;4944093;29;20090;-76
2022/03/04 04:55:25;;;;;;;23.10;13.63;;;-2.40;99.90;;;;;;4940341;29;20036;-77
2022/03/04 04:57:50;;;;;;;27.30;13.65;;;-2.20;99.90;;;;;;4914478;29;20492;-77
2022/03/04 05:00:17;;;;;;;25.90;13.38;;;-2.50;99.90;;;;;;4913949;29;20060;-77
2022/03/04 05:02:44;;;;;;;23.40;14.15;;;-2.40;99.90;;;;;;4919109;29;20066;-76
2022/03/04 05:05:10;;;;;;;24.30;13.00;;;-2.40;99.90;;;;;;4928445;28;20089;-76
2022/03/04 05:07:36;;;;;;;21.77;12.82;;;-2.30;99.90;;;;;;4969330;23;20034;-81
2022/03/04 05:10:02;;;;;;;24.42;14.18;;;-2.30;99.90;;;;;;4952465;28;20628;-81
2022/03/04 05:12:27;;;;;;;26.17;13.23;;;-2.30;99.90;;;;;;4968480;28;20030;-81
2022/03/04 05:14:53;;;;;;;22.02;13.10;;;-2.30;99.90;;;;;;4953122;28;20043;-81
2022/03/04 05:17:18;;;;;;;24.42;13.82;;;-2.20;99.90;;;;;;4968324;28;20049;-80
2022/03/04 05:19:44;;;;;;;25.58;14.35;;;-2.30;99.90;;;;;;4952499;28;20114;-79
2022/03/04 05:22:10;;;;;;;27.15;13.70;;;-2.20;99.90;;;;;;4968552;28;20027;-80
2022/03/04 05:24:35;;;;;;;24.90;13.70;;;-2.10;99.90;;;;;;4968801;28;20039;-80
2022/03/04 05:27:01;;;;;;;22.92;13.13;;;-2.00;99.90;;;;;;4951461;28;20023;-80
2022/03/04 05:29:26;;;;;;;24.05;14.02;;;-0.90;99.90;;;;;;4950240;28;20522;-79
2022/03/04 05:31:52;;;;;;;25.65;14.90;;;-2.30;99.90;;;;;;4951742;28;20039;-80
2022/03/04 05:34:18;;;;;;;27.52;13.35;;;-2.20;99.90;;;;;;4951552;28;20027;-80
2022/03/04 05:36:44;;;;;;;23.10;13.07;;;-2.10;99.90;;;;;;4968468;28;20035;-80
2022/03/04 05:39:09;;;;;;;26.88;14.10;;;-1.70;99.90;;;;;;4950536;28;20028;-80
2022/03/04 05:41:35;;;;;;;26.60;14.23;;;-2.50;99.90;;;;;;4966558;28;20034;-80
2022/03/04 05:44:03;;;;;;;25.42;13.32;;;-2.30;99.90;;;;;;4949213;28;20022;-80
2022/03/04 05:46:29;;;;;;;28.65;13.57;;;-2.20;99.90;;;;;;4964916;28;20027;-79
2022/03/04 05:48:55;;;;;;;27.75;14.10;;;-2.30;99.90;;;;;;4963685;28;20057;-79
2022/03/04 05:51:20;;;;;;;30.25;14.50;;;-2.40;99.90;;;;;;4964740;28;20123;-80
2022/03/04 05:53:46;;;;;;;25.88;14.68;;;-2.50;99.90;;;;;;4949699;28;20520;-80
2022/03/04 05:56:12;;;;;;;24.38;12.88;;;-2.40;99.90;;;;;;4949638;28;20035;-80
2022/03/04 05:58:38;;;;;;;25.88;14.02;;;-2.00;99.90;;;;;;4965309;28;20027;-79
2022/03/04 06:01:06;;;;;;;28.10;14.77;;;-2.30;99.90;;;;;;4965403;28;20034;-80
2022/03/04 06:03:32;;;;;;;28.50;14.70;;;-2.40;99.90;;;;;;4963545;28;20053;-80
2022/03/04 06:05:58;;;;;;;23.33;13.55;;;-2.20;99.90;;;;;;4945930;28;20039;-80
2022/03/04 06:08:24;;;;;;;24.85;14.45;;;-2.20;99.90;;;;;;4944589;28;20035;-79
2022/03/04 06:10:50;;;;;;;27.95;14.57;;;-2.00;99.90;;;;;;4944597;28;20126;-80
2022/03/04 06:13:16;;;;;;;24.52;14.52;;;-1.90;99.90;;;;;;4976752;28;20436;-78
2022/03/04 06:15:41;;;;;;;25.67;15.10;;;-1.90;99.90;;;;;;4956861;28;20531;-78
2022/03/04 06:18:07;;;;;;;28.08;14.85;;;-1.90;99.90;;;;;;4958563;28;20058;-79
2022/03/04 06:20:33;;;;;;;25.33;14.90;;;-1.90;99.90;;;;;;4922597;28;20027;-81
2022/03/04 06:22:58;;;;;;;28.75;16.38;;;-2.00;99.90;;;;;;4931306;28;20034;-80
2022/03/04 06:25:24;;;;;;;27.17;16.25;;;-1.40;99.90;;;;;;4960092;28;20121;-79
2022/03/04 06:27:51;;;;;;;30.38;14.60;;;-2.10;99.90;;;;;;4976948;28;20027;-80
2022/03/04 06:30:17;;;;;;;25.20;14.43;;;-1.90;99.90;;;;;;4943171;28;20042;-79
2022/03/04 06:32:42;;;;;;;26.85;15.35;;;-2.00;99.90;;;;;;4958049;28;20039;-78
2022/03/04 06:35:08;;;;;;;30.00;16.15;;;-0.70;99.90;;;;;;4940939;28;20035;-79
2022/03/04 06:37:34;;;;;;;27.60;15.00;;;-2.00;99.90;;;;;;4957193;28;20027;-79
2022/03/04 06:39:59;;;;;;;28.50;14.93;;;-2.10;99.90;;;;;;4973865;28;20031;-79
2022/03/04 06:42:25;;;;;;;25.90;14.90;;;-2.00;99.90;;;;;;4974799;28;20065;-79
2022/03/04 06:44:51;;;;;;;24.33;14.63;;;-1.90;99.90;;;;;;4957334;28;20031;-79
2022/03/04 06:47:16;;;;;;;26.08;15.23;;;-2.00;99.90;;;;;;4942404;28;20027;-79
2022/03/04 06:49:42;;;;;;;27.02;15.70;;;-1.70;99.90;;;;;;4953082;29;20039;-79
2022/03/04 06:52:07;;;;;;;28.27;16.50;;;0.10;99.90;;;;;;4955259;29;20045;-79
2022/03/04 06:54:36;;;;;;;32.58;16.55;;;-1.80;99.90;;;;;;4926583;28;20087;-79
2022/03/04 06:57:02;;;;;;;29.23;16.85;;;-1.60;99.90;;;;;;4976336;28;20018;-79
2022/03/04 06:59:28;;;;;;;27.55;16.73;;;-1.80;99.90;;;;;;4957573;28;20034;-79
2022/03/04 07:01:53;;;;;;;27.27;14.45;;;-1.40;99.90;;;;;;4956660;28;20031;-79
2022/03/04 07:04:19;;;;;;;27.83;15.70;;;-1.30;99.90;;;;;;4941154;28;20030;-79
2022/03/04 07:06:45;;;;;;;27.98;15.80;;;-1.20;99.90;;;;;;4954449;28;20039;-81
2022/03/04 07:09:10;;;;;;;23.75;13.88;;;-1.00;99.90;;;;;;4948113;28;20023;-83
2022/03/04 07:11:36;;;;;;;27.58;13.85;;;-0.80;99.90;;;;;;4953554;28;20027;-79
2022/03/04 07:14:02;;;;;;;33.58;15.00;;;-0.60;99.90;;;;;;4953099;28;20035;-78
2022/03/04 07:16:27;;;;;;;25.58;13.95;;;-0.50;99.90;;;;;;4955900;28;20034;-78
2022/03/04 07:18:53;;;;;;;22.88;13.88;;;-0.40;99.90;;;;;;4974105;28;20030;-79
2022/03/04 07:21:19;;;;;;;31.50;15.80;;;-0.10;99.90;;;;;;4957382;28;20030;-79
2022/03/04 07:23:44;;;;;;;23.65;14.35;;;-0.30;99.90;;;;;;4956843;28;20033;-80
2022/03/04 07:26:12;;;;;;;28.38;15.45;;;-0.30;99.90;;;;;;4940909;28;20031;-79
2022/03/04 07:28:38;;;;;;;26.85;15.27;;;-0.20;99.90;;;;;;4952461;28;20031;-78
2022/03/04 07:31:04;;;;;;;24.17;14.70;;;0.00;99.90;;;;;;4955201;28;20556;-78
2022/03/04 07:33:29;;;;;;;26.17;15.45;;;0.10;99.90;;;;;;4993123;28;20039;-80
2022/03/04 07:35:55;;;;;;;29.88;14.30;;;0.20;99.90;;;;;;4955100;28;20031;-79
2022/03/04 07:38:21;;;;;;;26.48;15.23;;;1.20;99.90;;;;;;4975944;28;20030;-79
2022/03/04 07:40:47;;;;;;;26.90;15.27;;;0.30;99.90;;;;;;4960555;28;20059;-80
2022/03/04 07:43:13;;;;;;;29.00;16.27;;;0.40;99.90;;;;;;4954418;28;20034;-79
2022/03/04 07:45:38;;;;;;;31.50;17.60;;;0.50;99.90;;;;;;4932572;29;20032;-79
2022/03/04 07:48:04;;;;;;;28.58;15.93;;;0.80;99.90;;;;;;4938720;28;20571;-80
2022/03/04 07:50:30;;;;;;;27.55;15.98;;;2.90;99.90;;;;;;4958146;28;20036;-81
2022/03/04 07:52:55;;;;;;;32.78;16.65;;;1.00;99.90;;;;;;4961146;28;20420;-80
2022/03/04 07:55:26;;;;;;;27.77;15.85;;;1.00;99.90;;;;;;4948245;28;20520;-79
2022/03/04 07:57:52;;;;;;;31.92;17.27;;;1.20;99.90;;;;;;4933234;28;20415;-79
2022/03/04 08:00:18;;;;;;;33.20;17.20;;;1.40;99.90;;;;;;4940887;29;20027;-82
2022/03/04 08:02:43;;;;;;;31.90;17.00;;;1.50;99.90;;;;;;4968031;28;20045;-80
2022/03/04 08:05:09;;;;;;;30.25;15.60;;;1.60;99.90;;;;;;4941106;28;20050;-80
2022/03/04 08:07:37;;;;;;;26.27;14.75;;;1.70;99.90;;;;;;4947076;28;20046;-81
2022/03/04 08:10:05;;;;;;;33.40;19.00;;;1.80;99.90;;;;;;4953438;28;20027;-81
2022/03/04 08:12:30;;;;;;;29.13;16.13;;;2.10;99.90;;;;;;4955136;28;20034;-80
2022/03/04 08:14:56;;;;;;;28.55;17.80;;;2.20;99.90;;;;;;4969340;28;20035;-80
2022/03/04 08:17:22;;;;;;;29.58;15.18;;;2.30;99.90;;;;;;4969090;28;20026;-80
2022/03/04 08:19:47;;;;;;;23.27;13.63;;;2.70;99.90;;;;;;4986926;28;20092;-80
2022/03/04 08:22:13;;;;;;;25.83;15.70;;;2.80;99.90;;;;;;4946049;28;20050;-79
2022/03/04 08:24:38;;;;;;;31.33;16.70;;;2.60;99.90;;;;;;4945317;29;20042;-80
2022/03/04 08:27:04;;;;;;;32.22;17.10;;;2.70;99.90;;;;;;4929468;28;20558;-80
2022/03/04 08:29:30;;;;;;;28.02;15.15;;;3.70;99.90;;;;;;4945844;28;20035;-81
2022/03/04 08:31:56;;;;;;;26.65;15.77;;;2.90;99.90;;;;;;4968334;28;20066;-81
2022/03/04 08:34:22;;;;;;;31.88;16.77;;;2.70;99.90;;;;;;4965391;28;20182;-81
2022/03/04 08:36:49;;;;;;;28.88;15.93;;;5.10;99.90;;;;;;4983047;28;20031;-83
2022/03/04 08:39:16;;;;;;;32.80;15.77;;;3.20;99.90;;;;;;4951286;28;20117;-82
2022/03/04 08:41:42;;;;;;;27.70;14.75;;;3.10;99.90;;;;;;4949224;28;20710;-80
2022/03/04 08:44:08;;;;;;;26.05;15.15;;;3.40;99.90;;;;;;4946953;28;20118;-81
2022/03/04 08:46:34;;;;;;;27.27;14.55;;;3.60;99.90;;;;;;4948255;28;20092;-80
2022/03/04 08:49:00;;;;;;;22.77;13.98;;;3.90;99.90;;;;;;4949042;28;20058;-80
2022/03/04 08:51:27;;;;;;;27.65;15.63;;;6.50;99.90;;;;;;4949454;28;20107;-79
2022/03/04 08:53:54;;;;;;;24.30;14.73;;;4.60;99.90;;;;;;4964741;28;20035;-80
2022/03/04 08:56:20;;;;;;;27.92;15.10;;;7.40;99.90;;;;;;4961790;28;20030;-80
2022/03/04 08:58:45;;;;;;;26.35;15.43;;;4.90;99.90;;;;;;4962903;28;20469;-80
2022/03/04 09:01:11;;;;;;;29.30;16.73;;;5.10;99.90;;;;;;4963454;28;20510;-79
2022/03/04 09:03:37;;;;;;;26.20;14.95;;;6.00;99.90;;;;;;4979156;28;20022;-80
2022/03/04 09:06:03;;;;;;;29.92;15.68;;;7.10;96.90;;;;;;4978420;28;20035;-79
2022/03/04 09:08:29;;;;;;;27.20;15.93;;;8.00;93.00;;;;;;4958063;28;20030;-79
2022/03/04 09:10:55;;;;;;;28.45;16.13;;;9.20;90.40;;;;;;4960432;28;20329;-79
2022/03/04 09:13:21;;;;;;;22.63;14.55;;;10.20;87.40;;;;;;4943582;28;20034;-79
2022/03/04 09:15:46;;;;;;;25.20;15.60;;;10.10;83.80;;;;;;4975585;28;20041;-81
2022/03/04 09:18:12;;;;;;;25.63;14.85;;;12.20;81.80;;;;;;4959230;28;20030;-80
2022/03/04 09:20:37;;;;;;;21.90;15.05;;;11.50;77.50;;;;;;4937227;29;20027;-80
2022/03/04 09:23:03;;;;;;;24.88;15.88;;;13.40;74.40;;;;;;4956685;28;20029;-79
2022/03/04 09:25:29;;;;;;;24.55;16.25;;;11.40;71.90;;;;;;4939744;28;20451;-79
2022/03/04 09:27:56;;;;;;;23.85;15.40;;;12.20;69.50;;;;;;4973435;28;20054;-79
2022/03/04 09:30:22;;;;;;;24.95;17.10;;;12.40;66.50;;;;;;4954914;28;20027;-79
2022/03/04 09:32:48;;;;;;;25.30;15.15;;;12.70;65.30;;;;;;4955382;28;20395;-79
2022/03/04 09:35:14;;;;;;;25.48;17.10;;;12.70;63.60;;;;;;4971208;28;20031;-79
2022/03/04 09:37:39;;;;;;;25.88;16.23;;;12.70;64.00;;;;;;4954811;28;20054;-79
2022/03/04 09:40:08;;;;;;;24.42;16.27;;;13.30;62.80;;;;;;4971103;28;20027;-79
2022/03/04 09:42:33;;;;;;;25.90;16.13;;;13.40;60.80;;;;;;4972998;28;20038;-79
2022/03/04 09:45:01;;;;;;;24.70;16.15;;;14.20;59.30;;;;;;4971575;28;20027;-79
2022/03/04 09:47:27;;;;;;;31.52;16.48;;;14.60;57.80;;;;;;4955239;28;20106;-79
2022/03/04 09:49:54;;;;;;;23.98;16.92;;;14.70;57.60;;;;;;4955386;28;20042;-79
2022/03/04 09:52:20;;;;;;;23.65;16.73;;;14.60;57.40;;;;;;4971120;28;20534;-79
2022/03/04 09:54:48;;;;;;;23.08;16.48;;;14.50;56.90;;;;;;4939221;28;20031;-79
2022/03/04 09:57:15;;;;;;;24.75;17.45;;;14.50;57.20;;;;;;4972272;28;20069;-79
2022/03/04 09:59:41;;;;;;;24.80;16.88;;;15.10;55.90;;;;;;4937405;28;20114;-79
2022/03/04 10:02:07;;;;;;;20.80;15.88;;;16.00;54.50;;;;;;4940339;28;20550;-80
2022/03/04 10:04:33;;;;;;;25.20;17.70;;;16.40;53.00;;;;;;4955144;28;20027;-79
2022/03/04 10:07:14;;;;;;;22.33;16.55;;;16.80;53.20;;;;;;4956603;28;20026;-79
2022/03/04 10:09:48;;;;;;;25.30;16.77;;;17.50;49.80;;;;;;4955234;28;20033;-79
2022/03/04 10:12:16;;;;;;;26.25;16.90;;;17.70;48.50;;;;;;4956982;28;20072;-79
2022/03/04 10:15:03;;;;;;;24.10;17.45;;;17.70;48.80;;;;;;4952839;28;20046;-79
2022/03/04 10:17:30;;;;;;;22.92;16.55;;;17.40;49.40;;;;;;4970063;28;20584;-79
2022/03/04 10:19:58;;;;;;;23.63;16.73;;;17.20;50.10;;;;;;4937515;28;20236;-79
2022/03/04 10:22:35;;;;;;;23.30;16.33;;;16.90;49.10;;;;;;4953947;28;20115;-79
2022/03/04 10:25:01;;;;;;;21.90;15.52;;;16.20;49.60;;;;;;4972402;28;20019;-80
2022/03/04 10:27:34;;;;;;;23.98;16.38;;;16.60;49.60;;;;;;4972117;28;20506;-80
2022/03/04 10:30:03;;;;;;;25.42;16.63;;;18.00;48.90;;;;;;4955809;28;20038;-79
2022/03/04 10:32:29;;;;;;;23.48;17.00;;;17.30;47.90;;;;;;4954137;28;20031;-79
2022/03/04 10:35:07;;;;;;;23.73;16.95;;;17.50;48.50;;;;;;4937114;28;20042;-79
2022/03/04 10:37:56;;;;;;;21.35;16.10;;;17.90;47.40;;;;;;4952515;28;20034;-79
2022/03/04 10:40:25;;;;;;;22.80;16.10;;;17.70;47.00;;;;;;4969982;28;20026;-80
2022/03/04 10:42:57;;;;;;;23.88;16.35;;;17.50;45.60;;;;;;4964207;28;20042;-79
2022/03/04 10:45:31;;;;;;;;;;;18.00;45.10;;;;;;4978105;28;20034;-79
2022/03/04 10:47:58;;;;;;;22.70;16.50;;;18.70;44.40;;;;;;4973213;28;19941;-80
2022/03/04 10:50:45;;;;;;;23.58;16.08;;;19.10;45.50;;;;;;4971332;28;20620;-80
2022/03/04 10:53:11;;;;;;;22.35;15.57;;;19.20;42.80;;;;;;4953192;28;20026;-79
2022/03/04 10:55:42;;;;;;;29.15;17.15;;;19.10;43.90;;;;;;4951807;28;20031;-79
2022/03/04 10:58:27;;;;;;;24.80;15.77;;;18.30;43.50;;;;;;4952494;28;20440;-79
2022/03/04 11:01:00;;;;;;;25.20;16.00;;;18.30;44.10;;;;;;4937165;28;20023;-79
2022/03/04 11:03:28;;;;;;;24.67;17.48;;;18.90;44.70;;;;;;4951561;28;20026;-79
2022/03/04 11:05:56;;;;;;;26.02;17.33;;;19.80;44.50;;;;;;4935318;28;20043;-79
2022/03/04 11:08:22;;;;;;;27.50;17.10;;;18.50;45.00;;;;;;4951144;28;20035;-79
2022/03/04 11:10:49;;;;;;;25.67;17.85;;;18.20;45.50;;;;;;4936073;28;20062;-79
2022/03/04 11:13:14;;;;;;;22.35;16.42;;;18.40;45.10;;;;;;4951775;28;20045;-79
2022/03/04 11:15:41;;;;;;;22.45;15.55;;;18.40;46.00;;;;;;4967739;28;20138;-79
2022/03/04 11:18:09;;;;;;;24.48;16.20;;;18.70;45.50;;;;;;4943852;29;20275;-79
2022/03/04 11:20:36;;;;;;;24.88;16.00;;;18.70;44.50;;;;;;4953920;28;20027;-80
2022/03/04 11:23:03;;;;;;;23.35;15.95;;;18.70;44.70;;;;;;4969419;28;20105;-79
2022/03/04 11:25:43;;;;;;;24.23;16.67;;;19.10;43.90;;;;;;4952355;28;20023;-79
2022/03/04 11:28:17;;;;;;;21.42;15.60;;;19.50;44.30;;;;;;4953045;28;20113;-80
2022/03/04 11:30:58;;;;;;;22.67;16.05;;;19.30;42.40;;;;;;4934884;29;20106;-80
2022/03/04 11:33:30;;;;;;;23.58;16.35;;;19.50;44.00;;;;;;4935254;29;20016;-79
2022/03/04 11:36:15;;;;;;;20.58;16.17;;;18.90;43.50;;;;;;4945072;28;20031;-80
2022/03/04 11:38:44;;;;;;;24.42;16.48;;;18.60;42.80;;;;;;4936818;28;20383;-75
2022/03/04 11:41:31;;;;;;;24.38;17.50;;;18.00;45.40;;;;;;4968705;28;20027;-78
2022/03/04 11:44:10;;;;;;;26.13;16.80;;;18.40;43.90;;;;;;4969976;28;20050;-77
2022/03/04 11:47:00;;;;;;;21.60;15.75;;;19.10;43.90;;;;;;4971623;28;20027;-79
2022/03/04 11:49:34;;;;;;;24.50;15.50;;;18.60;42.90;;;;;;4968150;28;20027;-78
2022/03/04 11:52:19;;;;;;;22.15;15.32;;;18.10;42.80;;;;;;4967637;28;20055;-78
2022/03/04 11:55:08;;;;;;;23.02;16.00;;;18.10;44.70;;;;;;4950709;28;20023;-78
2022/03/04 11:57:42;;;;;;;21.30;15.77;;;19.00;42.90;;;;;;4967073;28;20034;-78
2022/03/04 12:00:11;;;;;;;22.15;16.20;;;18.70;43.00;;;;;;4967206;28;20238;-78
2022/03/04 12:02:48;;;;;;;20.98;15.43;;;18.20;45.10;;;;;;4951624;28;20042;-79
2022/03/04 12:05:14;;;;;;;20.60;15.52;;;17.80;44.10;;;;;;4950033;28;20438;-78
2022/03/04 12:07:45;;;;;;;22.55;15.57;;;17.80;45.10;;;;;;4967678;28;20027;-79
2022/03/04 12:10:20;;;;;;;21.20;14.98;;;17.80;44.40;;;;;;4951625;28;20030;-79
2022/03/04 12:13:03;;;;;;;19.15;14.40;;;18.10;43.10;;;;;;4958713;28;20114;-79
2022/03/04 12:15:38;;;;;;;26.90;15.40;;;18.50;44.20;;;;;;4964076;28;20030;-79
2022/03/04 12:18:25;;;;;;;21.90;15.43;;;19.20;42.00;;;;;;4977695;28;20570;-79
2022/03/04 12:20:56;;;;;;;20.77;13.88;;;19.10;44.30;;;;;;4960730;28;20030;-79
2022/03/04 12:23:36;;;;;;;21.93;14.60;;;19.20;44.20;;;;;;4965308;29;20749;-79
2022/03/04 12:26:01;;;;;;;22.75;14.82;;;19.00;43.60;;;;;;4947311;28;20031;-79
2022/03/04 12:28:41;;;;;;;22.20;14.98;;;18.50;43.00;;;;;;4956369;28;20027;-79
2022/03/04 12:31:21;;;;;;;20.27;14.23;;;18.60;44.30;;;;;;4970977;28;20015;-79
2022/03/04 12:33:54;;;;;;;22.83;14.32;;;19.20;42.60;;;;;;4939331;28;20035;-79
2022/03/04 12:36:21;;;;;;;22.25;14.27;;;20.20;42.60;;;;;;4954043;28;20034;-79